Time;durP1;ratioP1;P1;durP2;ratioP2;P2;SDS_P1;SDS_P2;PMS_P1;PMS_P2;Temp;Humidity;BMP_temperature;BMP_pressure;BME280_temperature;BME280_humidity;BME280_pressure;Samples;Min_cycle;Max_cycle;Signal;HPM_P1;HPM_P2
2024/04/16 00:01:06;;;;;;;9.25;4.03;;;;;;;18.35;60.42;92591.13;5479578;26;20009;-73
2024/04/16 00:03:32;;;;;;;8.30;4.30;;;;;;;17.89;61.13;92541.03;5483628;26;20010;-73
2024/04/16 00:05:58;;;;;;;6.80;4.20;;;;;;;18.23;61.10;92596.72;5473065;26;20018;-73
2024/04/16 00:08:24;;;;;;;7.32;3.90;;;;;;;18.09;61.40;92573.91;5478620;26;20002;-73
2024/04/16 00:10:49;;;;;;;7.30;4.53;;;;;;;18.15;61.86;92592.88;5475997;26;20010;-74
2024/04/16 00:13:15;;;;;;;6.75;4.20;;;;;;;17.88;61.52;92552.50;5468411;26;19995;-73
2024/04/16 00:15:40;;;;;;;7.68;4.07;;;;;;;17.93;62.44;92560.25;5478897;26;20105;-73
2024/04/16 00:18:06;;;;;;;8.35;4.68;;;;;;;17.93;62.27;92573.25;5479014;26;20489;-72
2024/04/16 00:20:31;;;;;;;8.18;4.60;;;;;;;18.00;62.23;92594.50;5483320;26;20029;-73
2024/04/16 00:22:57;;;;;;;11.88;4.85;;;;;;;17.30;62.21;92494.94;5481838;26;20078;-72
2024/04/16 00:25:22;;;;;;;9.60;5.28;;;;;;;17.79;63.08;92572.28;5478862;26;20070;-72
2024/04/16 00:27:48;;;;;;;10.20;4.75;;;;;;;17.67;63.77;92557.06;5479604;26;20703;-72
2024/04/16 00:30:13;;;;;;;7.55;4.93;;;;;;;17.84;64.04;92593.03;5477747;26;20469;-72
2024/04/16 00:32:39;;;;;;;6.88;4.40;;;;;;;17.81;63.36;92589.16;5478236;26;19998;-72
2024/04/16 00:35:04;;;;;;;5.97;4.85;;;;;;;17.61;63.93;92566.69;5482025;26;20002;-72
2024/04/16 00:37:30;;;;;;;9.20;5.03;;;;;;;17.62;64.05;92563.84;5470157;26;20319;-72
2024/04/16 00:39:55;;;;;;;7.40;4.45;;;;;;;17.68;63.95;92580.16;5482076;26;20051;-72
2024/04/16 00:42:21;;;;;;;11.30;5.53;;;;;;;17.60;63.58;92558.09;5482075;26;20054;-72
2024/04/16 00:44:46;;;;;;;7.03;4.47;;;;;;;17.56;63.86;92558.94;5473189;26;20006;-72
2024/04/16 00:47:14;;;;;;;7.40;5.13;;;;;;;17.78;64.49;92592.31;5482100;26;20491;-72
2024/04/16 00:49:40;;;;;;;9.20;5.40;;;;;;;17.84;64.01;92598.22;5477524;26;19998;-72
2024/04/16 00:52:06;;;;;;;8.20;5.10;;;;;;;17.61;64.00;92567.47;5478350;26;20318;-73
2024/04/16 00:54:33;;;;;;;8.02;4.35;;;;;;;16.94;64.04;92476.97;5480260;26;20009;-73
2024/04/16 00:56:59;;;;;;;9.10;4.80;;;;;;;17.62;64.44;92573.44;5482537;26;20013;-73
2024/04/16 00:59:25;;;;;;;14.40;5.10;;;;;;;17.42;65.18;92549.16;5476275;26;20451;-72
2024/04/16 01:01:53;;;;;;;7.00;4.90;;;;;;;17.53;65.30;92596.59;5477280;26;20031;-72
2024/04/16 01:04:20;;;;;;;7.75;4.88;;;;;;;17.22;65.74;92542.25;5457684;26;20003;-72
2024/04/16 01:06:46;;;;;;;11.95;4.75;;;;;;;17.16;65.77;92544.06;5475404;26;20071;-72
2024/04/16 01:09:13;;;;;;;11.75;5.80;;;;;;;17.43;65.68;92587.03;5482156;26;20006;-72
2024/04/16 01:11:38;;;;;;;15.52;5.82;;;;;;;17.34;65.72;92580.84;5481816;26;19994;-72
2024/04/16 01:14:04;;;;;;;7.45;4.60;;;;;;;17.33;65.70;92581.91;5476666;26;20010;-72
2024/04/16 01:16:30;;;;;;;7.22;4.60;;;;;;;17.00;65.94;92545.94;5478798;26;20002;-72
2024/04/16 01:18:55;;;;;;;10.38;5.15;;;;;;;17.14;65.94;92566.16;5474594;26;19999;-72
2024/04/16 01:21:21;;;;;;;7.10;4.50;;;;;;;17.19;66.31;92595.47;5479354;26;19998;-72
2024/04/16 01:23:46;;;;;;;8.15;5.05;;;;;;;16.85;66.49;92551.19;5482488;26;19994;-72
2024/04/16 01:26:12;;;;;;;9.30;5.75;;;;;;;16.79;67.12;92556.38;5479047;26;20497;-72
2024/04/16 01:28:37;;;;;;;9.80;5.50;;;;;;;16.67;67.07;92540.34;5474060;26;20079;-72
2024/04/16 01:31:03;;;;;;;8.55;5.03;;;;;;;17.00;67.79;92586.66;5481857;26;20467;-72
2024/04/16 01:33:28;;;;;;;8.77;5.38;;;;;;;16.99;67.77;92579.94;5465756;26;20002;-72
2024/04/16 01:35:54;;;;;;;10.35;5.38;;;;;;;16.79;67.77;92540.81;5481874;26;20420;-72
2024/04/16 01:38:20;;;;;;;8.93;4.93;;;;;;;16.69;67.75;92538.25;5476744;26;20047;-72
2024/04/16 01:40:45;;;;;;;9.10;5.03;;;;;;;16.81;67.77;92556.13;5481019;26;19998;-72
2024/04/16 01:43:11;;;;;;;15.07;5.28;;;;;;;16.75;68.65;92539.03;5478040;26;20013;-72
2024/04/16 01:45:36;;;;;;;9.52;5.10;;;;;;;16.91;67.77;92561.28;5479453;26;20002;-72
2024/04/16 01:48:02;;;;;;;10.80;5.35;;;;;;;16.86;67.67;92563.09;5477706;26;20125;-72
2024/04/16 01:50:27;;;;;;;7.85;5.00;;;;;;;16.70;67.94;92537.22;5477481;26;20021;-71
2024/04/16 01:52:53;;;;;;;8.63;5.03;;;;;;;16.13;68.04;92457.78;5477951;26;20000;-71
2024/04/16 01:55:18;;;;;;;8.95;5.03;;;;;;;16.76;68.68;92558.72;5481522;26;19998;-72
2024/04/16 01:57:44;;;;;;;9.10;4.65;;;;;;;16.76;68.21;92556.91;5470267;26;20679;-72
2024/04/16 02:00:10;;;;;;;8.10;4.70;;;;;;;16.68;68.06;92545.25;5480609;26;20002;-72
2024/04/16 02:02:36;;;;;;;8.95;5.32;;;;;;;16.76;67.12;92561.31;5481983;26;20333;-72
2024/04/16 02:05:03;;;;;;;8.65;5.05;;;;;;;16.75;67.71;92557.19;5476112;26;20022;-72
2024/04/16 02:07:30;;;;;;;8.45;5.43;;;;;;;16.75;66.96;92559.78;5474211;26;19994;-72
2024/04/16 02:09:56;;;;;;;9.65;5.38;;;;;;;16.50;66.62;92525.06;5477500;26;20003;-72
2024/04/16 02:12:21;;;;;;;8.02;5.20;;;;;;;16.51;66.95;92521.44;5480003;26;19998;-71
2024/04/16 02:14:49;;;;;;;11.27;5.20;;;;;;;16.77;67.69;92568.06;5479789;26;19998;-71
2024/04/16 02:17:15;;;;;;;8.88;5.60;;;;;;;16.64;67.45;92549.44;5481589;26;20434;-72
2024/04/16 02:19:41;;;;;;;11.38;5.00;;;;;;;16.44;67.05;92521.72;5472886;26;20009;-72
2024/04/16 02:22:07;;;;;;;8.93;5.72;;;;;;;16.53;67.51;92534.94;5480948;26;20438;-72
2024/04/16 02:24:33;;;;;;;;;;;;;;;16.65;67.49;92553.56;5480787;26;19994;-72
2024/04/16 02:26:58;;;;;;;7.10;4.97;;;;;;;16.27;67.85;92516.84;5470892;26;20359;-72
2024/04/16 02:29:23;;;;;;;7.47;4.80;;;;;;;16.38;68.57;92541.69;5468336;26;20012;-71
2024/04/16 02:31:49;;;;;;;10.43;5.20;;;;;;;16.41;68.68;92548.16;5477764;26;20010;-72
2024/04/16 02:34:14;;;;;;;10.07;5.60;;;;;;;16.07;69.51;92509.88;5475556;26;20002;-73
2024/04/16 02:36:40;;;;;;;6.65;5.00;;;;;;;16.24;69.87;92557.00;5470047;26;19999;-72
2024/04/16 02:39:05;;;;;;;10.32;5.85;;;;;;;15.92;69.88;92523.56;5479308;26;20005;-72
2024/04/16 02:41:31;;;;;;;11.98;5.57;;;;;;;16.13;70.44;92551.06;5484069;26;20034;-72
2024/04/16 02:43:56;;;;;;;7.63;5.32;;;;;;;16.05;70.65;92548.22;5479429;26;20038;-72
2024/04/16 02:46:22;;;;;;;9.10;5.38;;;;;;;15.49;71.05;92481.38;5474030;26;20004;-72
2024/04/16 02:48:48;;;;;;;12.52;6.40;;;;;;;15.73;71.43;92518.88;5477697;26;19998;-72
2024/04/16 02:51:14;;;;;;;10.07;5.10;;;;;;;15.93;70.93;92548.47;5476269;26;20434;-72
2024/04/16 02:53:40;;;;;;;;;;;;;;;16.03;70.96;92553.66;5479276;26;20495;-72
2024/04/16 02:56:05;;;;;;;8.55;5.45;;;;;;;15.89;71.19;92543.00;5482449;26;19935;-72
2024/04/16 02:58:31;;;;;;;10.95;5.78;;;;;;;15.86;71.73;92533.94;5480904;26;20030;-72
2024/04/16 03:00:57;;;;;;;13.80;5.97;;;;;;;15.61;71.04;92501.81;5483082;26;20005;-72
2024/04/16 03:03:22;;;;;;;7.70;5.38;;;;;;;15.86;71.70;92541.69;5484219;26;20006;-72
2024/04/16 03:05:57;;;;;;;6.88;5.13;;;;;;;15.75;72.07;92525.38;5476877;26;19990;-73
2024/04/16 03:08:22;;;;;;;13.95;5.90;;;;;;;15.43;72.24;92494.53;5477788;26;20009;-72
2024/04/16 03:10:48;;;;;;;8.60;4.90;;;;;;;15.66;72.91;92523.56;5484065;26;20037;-72
2024/04/16 03:13:14;;;;;;;10.07;5.13;;;;;;;15.48;73.10;92491.97;5475107;26;20010;-72
2024/04/16 03:15:39;;;;;;;8.80;5.45;;;;;;;15.48;72.29;92492.75;5484069;26;20044;-72
2024/04/16 03:18:05;;;;;;;10.95;5.50;;;;;;;15.47;72.64;92495.59;5480071;26;20002;-72
2024/04/16 03:20:30;;;;;;;10.38;4.90;;;;;;;15.44;72.49;92489.13;5484171;26;20066;-72
2024/04/16 03:22:56;;;;;;;9.88;5.65;;;;;;;15.59;72.53;92516.03;5481053;26;19994;-72
2024/04/16 03:25:23;;;;;;;7.72;5.70;;;;;;;15.66;73.27;92545.06;5470893;26;20323;-72
2024/04/16 03:27:50;;;;;;;11.10;5.90;;;;;;;15.34;73.11;92494.28;5475914;26;20018;-72
2024/04/16 03:30:15;;;;;;;9.98;5.40;;;;;;;15.47;73.58;92517.06;5477969;26;20002;-72
2024/04/16 03:32:41;;;;;;;11.30;6.00;;;;;;;15.36;73.93;92497.38;5484117;26;20443;-72
2024/04/16 03:35:08;;;;;;;13.05;5.43;;;;;;;15.53;73.67;92519.66;5482755;26;20074;-72
2024/04/16 03:37:33;;;;;;;10.23;5.90;;;;;;;15.58;73.27;92541.16;5473809;26;20626;-72
2024/04/16 03:39:59;;;;;;;11.52;5.70;;;;;;;15.10;73.19;92464.47;5481970;26;20002;-72
2024/04/16 03:42:24;;;;;;;10.35;5.15;;;;;;;15.31;73.15;92494.78;5483375;26;20005;-72
2024/04/16 03:44:56;;;;;;;11.00;5.28;;;;;;;15.56;73.15;92530.28;5482120;26;20001;-72
2024/04/16 03:47:22;;;;;;;10.90;5.03;;;;;;;15.43;73.78;92517.84;5469211;26;20014;-72
2024/04/16 03:49:48;;;;;;;14.25;5.57;;;;;;;15.49;73.87;92532.34;5483117;26;19998;-72
2024/04/16 03:52:13;;;;;;;;;;;;;;;15.57;73.02;92531.06;5478047;26;20041;-72
2024/04/16 03:54:39;;;;;;;10.18;5.63;;;;;;;15.30;73.64;92499.19;5477494;26;19924;-72
2024/04/16 03:57:04;;;;;;;11.82;5.32;;;;;;;15.48;73.45;92520.44;5483028;26;19994;-72
2024/04/16 04:02:19;;;;;;;12.02;5.22;;;;;;;15.47;73.86;92526.66;5480358;26;20013;-72
2024/04/16 04:04:45;;;;;;;10.70;5.47;;;;;;;15.27;73.79;92497.09;5479347;26;20014;-72
2024/04/16 04:07:11;;;;;;;16.65;6.15;;;;;;;15.50;73.72;92539.84;5475298;26;20006;-72
2024/04/16 04:09:36;;;;;;;10.05;5.10;;;;;;;15.38;73.67;92523.78;5470483;26;20872;-72
2024/04/16 04:12:02;;;;;;;9.15;5.18;;;;;;;15.48;73.09;92535.97;5478499;26;19999;-72
2024/04/16 04:14:28;;;;;;;9.95;5.05;;;;;;;15.32;73.52;92502.28;5479315;26;20009;-72
2024/04/16 04:16:53;;;;;;;9.77;5.72;;;;;;;15.20;73.29;92492.19;5480874;26;20005;-73
2024/04/16 04:19:19;;;;;;;10.10;4.75;;;;;;;15.32;73.05;92498.94;5480337;26;20010;-74
2024/04/16 04:21:44;;;;;;;12.82;4.97;;;;;;;15.44;73.10;92519.38;5480295;26;20345;-74
2024/04/16 04:24:15;;;;;;;8.35;5.00;;;;;;;15.40;72.67;92508.00;5483109;26;20002;-72
2024/04/16 04:26:40;;;;;;;11.85;5.50;;;;;;;15.67;72.37;92532.88;5499383;26;20339;-74
2024/04/16 04:29:06;;;;;;;10.45;4.65;;;;;;;14.99;73.04;92431.09;5491632;26;20071;-73
2024/04/16 04:31:31;;;;;;;7.80;4.65;;;;;;;15.52;72.26;92515.53;5494430;26;20006;-73
2024/04/16 04:33:58;;;;;;;14.52;6.20;;;;;;;15.59;72.24;92519.41;5493012;25;19994;-72
2024/04/16 04:36:23;;;;;;;11.55;4.90;;;;;;;15.71;71.95;92526.94;5479586;26;20004;-72
2024/04/16 04:38:49;;;;;;;14.18;4.72;;;;;;;15.82;71.75;92538.06;5496962;26;19994;-73
2024/04/16 04:41:14;;;;;;;11.77;5.57;;;;;;;15.93;71.86;92536.31;5487310;25;19997;-72
2024/04/16 04:43:40;;;;;;;10.25;5.40;;;;;;;16.02;71.25;92541.75;5485741;26;20001;-73
2024/04/16 04:46:05;;;;;;;13.88;5.45;;;;;;;16.19;71.76;92540.69;5480706;26;20529;-72
2024/04/16 04:48:31;;;;;;;11.35;5.90;;;;;;;16.18;71.35;92539.91;5492622;26;20055;-72
2024/04/16 04:50:56;;;;;;;13.18;4.70;;;;;;;16.37;71.14;92550.50;5500527;26;19994;-73
2024/04/16 04:53:22;;;;;;;13.32;5.30;;;;;;;16.17;71.32;92515.78;5508093;25;20000;-72
2024/04/16 04:55:47;;;;;;;14.15;5.93;;;;;;;16.28;71.36;92516.56;5482729;26;19998;-73
2024/04/16 04:58:13;;;;;;;15.55;6.00;;;;;;;16.62;70.80;92548.91;5496179;26;20327;-73
2024/04/16 05:00:38;;;;;;;14.65;5.50;;;;;;;16.72;70.56;92557.69;5509074;25;20013;-72
2024/04/16 05:03:04;;;;;;;15.15;5.60;;;;;;;16.64;70.56;92525.31;5477338;25;20022;-73
2024/04/16 05:05:32;;;;;;;11.90;5.72;;;;;;;16.65;70.26;92513.88;5494488;26;20049;-73
2024/04/16 05:07:58;;;;;;;10.43;5.78;;;;;;;16.98;69.94;92542.06;5498190;26;19998;-73
2024/04/16 05:10:24;;;;;;;15.40;5.28;;;;;;;17.02;69.34;92522.31;5497205;26;20009;-73
2024/04/16 05:12:50;;;;;;;14.02;5.60;;;;;;;16.96;68.96;92493.78;5495396;25;20009;-73
2024/04/16 05:15:15;;;;;;;;;;;;;;;17.33;67.88;92528.16;5491426;26;20368;-73
2024/04/16 05:17:41;;;;;;;14.02;5.28;;;;;;;17.32;68.15;92518.81;5490837;26;19923;-73
2024/04/16 05:20:07;;;;;;;15.68;5.53;;;;;;;17.01;67.96;92454.09;5481313;26;19998;-73
2024/04/16 05:22:32;;;;;;;15.48;5.30;;;;;;;17.40;67.44;92508.91;5502941;25;20070;-73
2024/04/16 05:24:58;;;;;;;14.35;5.45;;;;;;;17.03;67.11;92414.94;5493923;25;19998;-73
2024/04/16 05:27:23;;;;;;;12.40;5.13;;;;;;;17.81;66.74;92520.84;5492979;26;20008;-74
2024/04/16 05:29:49;;;;;;;12.80;5.35;;;;;;;17.79;67.16;92510.72;5496601;25;20046;-73
2024/04/16 05:32:14;;;;;;;8.98;4.80;;;;;;;17.91;67.38;92518.16;5516211;25;20073;-73
2024/04/16 05:34:40;;;;;;;11.23;4.57;;;;;;;17.75;65.72;92486.34;5489286;25;20075;-73
2024/04/16 05:37:06;;;;;;;12.25;4.88;;;;;;;18.08;65.56;92517.00;5511736;25;19993;-73
2024/04/16 05:39:31;;;;;;;8.65;4.65;;;;;;;18.00;64.50;92506.13;5496014;26;20513;-73
2024/04/16 05:41:57;;;;;;;10.73;4.55;;;;;;;17.86;63.09;92477.41;5488773;25;20703;-73
2024/04/16 05:44:22;;;;;;;15.80;5.50;;;;;;;18.46;62.41;92539.84;5482652;26;20001;-73
2024/04/16 05:46:48;;;;;;;11.63;4.85;;;;;;;18.41;61.64;92518.03;5495075;26;20017;-73
2024/04/16 05:49:14;;;;;;;9.77;4.13;;;;;;;18.38;59.62;92499.59;5490483;26;20093;-73
2024/04/16 05:51:40;;;;;;;8.30;3.40;;;;;;;18.15;58.55;92444.72;5487633;25;20006;-73
2024/04/16 05:54:06;;;;;;;7.63;3.80;;;;;;;18.74;57.71;92508.84;5482635;26;19998;-72
2024/04/16 05:56:33;;;;;;;8.65;4.53;;;;;;;19.04;56.81;92512.94;5510181;25;20451;-73
2024/04/16 05:58:59;;;;;;;7.15;3.30;;;;;;;19.02;56.60;92490.84;5494829;25;20076;-73
2024/04/16 06:01:24;;;;;;;8.18;3.80;;;;;;;19.29;55.73;92505.84;5499425;25;20690;-73
2024/04/16 06:03:50;;;;;;;9.30;4.30;;;;;;;19.31;55.31;92488.09;5486757;25;20010;-73
2024/04/16 06:06:15;;;;;;;10.93;4.43;;;;;;;19.53;54.54;92507.59;5489663;25;20006;-72
2024/04/16 06:08:40;;;;;;;8.68;2.95;;;;;;;19.75;54.94;92516.66;5540467;25;20465;-73
2024/04/16 06:11:06;;;;;;;10.57;4.40;;;;;;;19.67;54.78;92480.84;5475471;25;20007;-73
2024/04/16 06:13:31;;;;;;;8.88;4.80;;;;;;;19.83;54.39;92481.38;5485915;26;20004;-73
2024/04/16 06:15:57;;;;;;;10.55;3.42;;;;;;;19.95;53.62;92478.34;5502311;26;20637;-73
2024/04/16 06:18:23;;;;;;;13.80;4.10;;;;;;;20.26;51.21;92506.50;5491173;25;19998;-73
2024/04/16 06:20:49;;;;;;;;;;;;;;;20.42;52.16;92510.41;5492190;25;19997;-73
2024/04/16 06:23:14;;;;;;;7.70;3.47;;;;;;;20.39;51.75;92500.56;5487226;26;19930;-73
2024/04/16 06:25:40;;;;;;;;;;;;;;;20.52;50.47;92511.28;5498412;26;20008;-73
2024/04/16 06:28:05;;;;;;;;;;;;;;;20.54;49.97;92499.50;5496085;26;20373;-73
2024/04/16 06:30:31;;;;;;;10.27;3.30;;;;;;;20.13;49.26;92427.19;5476765;26;19935;-73
2024/04/16 06:32:56;;;;;;;6.88;3.88;;;;;;;20.52;49.56;92478.16;5497251;26;19995;-73
2024/04/16 06:35:21;;;;;;;7.50;3.97;;;;;;;20.42;49.46;92449.66;5484135;26;20066;-73
2024/04/16 06:37:47;;;;;;;;;;;;;;;20.75;50.26;92475.63;5484633;26;20512;-73
2024/04/16 06:40:13;;;;;;;10.63;3.50;;;;;;;20.72;49.19;92472.81;5483772;26;19924;-73
2024/04/16 06:42:38;;;;;;;;;;;;;;;20.82;49.30;92468.19;5479488;26;20346;-73
2024/04/16 06:45:04;;;;;;;;;;;;;;;20.89;49.32;92472.25;5495792;26;20663;-73
2024/04/16 06:47:29;;;;;;;6.63;3.53;;;;;;;20.72;49.64;92444.09;5486715;26;19924;-74
2024/04/16 06:49:54;;;;;;;;;;;;;;;20.95;48.59;92479.72;5499154;26;19998;-74
2024/04/16 06:52:20;;;;;;;9.38;3.20;;;;;;;20.69;48.63;92424.63;5506733;26;19935;-73
2024/04/16 06:54:47;;;;;;;8.13;3.42;;;;;;;20.80;48.65;92444.22;5490375;26;19998;-73
2024/04/16 06:57:13;;;;;;;10.18;3.17;;;;;;;20.80;48.63;92444.22;5509980;26;20051;-73
2024/04/16 06:59:39;;;;;;;9.02;3.33;;;;;;;20.75;49.05;92425.28;5502304;25;20033;-73
2024/04/16 07:02:04;;;;;;;12.52;3.40;;;;;;;20.91;48.18;92457.06;5490319;26;19997;-73
2024/04/16 07:04:29;;;;;;;;;;;;;;;21.05;48.73;92473.50;5505053;26;20006;-73
2024/04/16 07:06:55;;;;;;;7.53;3.13;;;;;;;20.90;48.65;92451.09;5510719;26;19978;-73
2024/04/16 07:09:20;;;;;;;10.43;3.53;;;;;;;20.58;48.82;92395.34;5486537;25;20660;-73
2024/04/16 07:11:46;;;;;;;;;;;;;;;21.12;48.56;92451.44;5486842;26;20017;-74
2024/04/16 07:14:11;;;;;;;8.60;3.67;;;;;;;21.04;48.42;92450.28;5484388;26;19956;-73
2024/04/16 07:16:37;;;;;;;10.82;3.95;;;;;;;21.02;48.19;92426.31;5486330;25;20780;-73
2024/04/16 07:19:02;;;;;;;;;;;;;;;21.21;47.74;92452.28;5492117;26;20006;-73
2024/04/16 07:21:27;;;;;;;7.77;3.43;;;;;;;21.10;46.83;92430.81;5494242;26;19923;-73
2024/04/16 07:23:54;;;;;;;8.75;3.42;;;;;;;21.06;45.98;92422.81;5498548;26;20272;-73
2024/04/16 07:26:20;;;;;;;6.80;3.28;;;;;;;20.99;45.74;92390.34;5488310;26;20010;-73
2024/04/16 07:28:45;;;;;;;9.00;3.83;;;;;;;21.26;45.92;92420.84;5500157;25;20017;-73
2024/04/16 07:31:10;;;;;;;;;;;;;;;21.40;45.28;92423.41;5504000;26;20037;-73
2024/04/16 07:33:36;;;;;;;8.00;3.10;;;;;;;21.05;44.57;92387.34;5501027;26;20345;-73
2024/04/16 07:36:08;;;;;;;;;;;;;;;21.37;45.25;92434.41;5484698;26;20430;-73
2024/04/16 07:38:34;;;;;;;6.50;2.80;;;;;;;21.35;44.76;92437.31;5493899;26;20327;-73
2024/04/16 07:40:59;;;;;;;;;;;;;;;21.48;44.49;92450.66;5495783;26;20328;-73
2024/04/16 07:43:25;;;;;;;10.10;3.28;;;;;;;21.46;44.79;92450.94;5478398;26;19924;-73
2024/04/16 07:45:51;;;;;;;;;;;;;;;21.57;44.51;92454.09;5507936;25;20380;-73
2024/04/16 07:48:16;;;;;;;;;;;;;;;21.60;43.56;92450.09;5505851;26;20351;-73
2024/04/16 07:50:42;;;;;;;4.93;2.75;;;;;;;21.59;44.07;92438.13;5496185;26;19924;-73
2024/04/16 07:53:08;;;;;;;11.68;3.78;;;;;;;21.70;43.56;92438.66;5491917;26;20009;-73
2024/04/16 07:55:33;;;;;;;;;;;;;;;21.99;43.60;92463.63;5487711;25;20342;-73
2024/04/16 07:57:59;;;;;;;8.35;2.55;;;;;;;21.89;44.18;92438.47;5493421;26;19935;-73
2024/04/16 08:00:28;;;;;;;;;;;;;;;22.13;43.31;92456.44;5495394;26;20021;-73
2024/04/16 08:02:54;;;;;;;6.43;2.95;;;;;;;21.99;43.42;92443.44;5492214;26;19936;-73
2024/04/16 08:05:19;;;;;;;;;;;;;;;22.24;42.82;92462.19;5507090;25;19994;-73
2024/04/16 08:07:45;;;;;;;9.52;3.28;;;;;;;22.22;44.18;92451.25;5482063;26;20317;-73
2024/04/16 08:10:10;;;;;;;;;;;;;;;22.46;43.71;92455.38;5506470;25;20054;-73
2024/04/16 08:12:36;;;;;;;;;;;;;;;22.67;43.56;92444.34;5516028;26;19968;-73
2024/04/16 08:15:01;;;;;;;;;;;;;;;22.69;43.29;92442.97;5497186;26;20440;-74
2024/04/16 08:17:27;;;;;;;;;;;;;;;22.77;41.96;92446.69;5495086;26;19965;-73
2024/04/16 08:19:52;;;;;;;11.00;3.20;;;;;;;22.39;42.27;92384.38;5493460;26;19923;-73
2024/04/16 08:22:17;;;;;;;;;;;;;;;22.92;41.42;92437.63;5486393;26;20332;-73
2024/04/16 08:24:43;;;;;;;;;;;;;;;22.91;42.01;92432.72;5498574;26;19923;-73
2024/04/16 08:27:08;;;;;;;10.40;2.90;;;;;;;22.83;42.07;92435.00;5497129;26;19923;-73
2024/04/16 08:29:33;;;;;;;;;;;;;;;22.94;42.32;92430.25;5495078;26;20012;-73
2024/04/16 08:31:59;;;;;;;;;;;;;;;22.96;42.78;92429.94;5512694;26;19930;-73
2024/04/16 08:34:24;;;;;;;7.67;3.30;;;;;;;22.94;43.00;92424.22;5514987;26;19923;-73
2024/04/16 08:36:50;;;;;;;;;;;;;;;23.09;43.02;92420.38;5496575;25;20661;-73
2024/04/16 08:39:15;;;;;;;10.27;3.55;;;;;;;22.92;43.25;92381.88;5503519;26;19924;-72
2024/04/16 08:41:40;;;;;;;;;;;;;;;23.26;43.08;92414.41;5513331;25;19998;-73
2024/04/16 08:44:06;;;;;;;6.65;3.38;;;;;;;23.17;43.56;92384.81;5511897;26;19923;-73
2024/04/16 08:46:33;;;;;;;;;;;;;;;23.45;43.60;92408.88;5493090;25;19998;-73
2024/04/16 08:48:59;;;;;;;12.98;4.00;;;;;;;23.34;42.63;92397.91;5487490;26;20382;-73
2024/04/16 08:51:26;;;;;;;9.77;4.15;;;;;;;23.49;42.76;92399.31;5490754;25;20781;-73
2024/04/16 08:53:54;;;;;;;8.15;3.40;;;;;;;23.00;42.37;92320.88;5487486;25;19998;-74
2024/04/16 08:56:20;;;;;;;9.13;3.70;;;;;;;23.71;42.50;92402.81;5498738;26;20338;-74
2024/04/16 08:58:46;;;;;;;8.10;3.63;;;;;;;23.79;42.60;92382.88;5493675;26;20076;-73
2024/04/16 09:01:12;;;;;;;;;;;;;;;24.16;41.89;92413.97;5492542;26;20366;-73
2024/04/16 09:03:38;;;;;;;14.35;4.15;;;;;;;24.09;42.34;92398.72;5503295;26;19930;-73
2024/04/16 09:06:04;;;;;;;;;;;;;;;24.32;40.70;92422.09;5478276;26;19998;-74
2024/04/16 09:08:31;;;;;;;11.35;4.45;;;;;;;23.99;41.06;92383.31;5509727;26;20256;-74
2024/04/16 09:10:56;;;;;;;8.27;3.50;;;;;;;24.24;39.99;92426.31;5495543;25;20065;-73
2024/04/16 09:13:22;;;;;;;;;;;;;;;24.16;39.13;92421.84;5484331;26;20085;-74
2024/04/16 09:15:47;;;;;;;;;;;;;;;24.02;40.16;92422.00;5496194;26;19924;-73
2024/04/16 09:18:13;;;;;;;7.47;3.40;;;;;;;23.81;39.71;92406.97;5492586;26;19924;-73
2024/04/16 09:20:39;;;;;;;11.10;4.10;;;;;;;23.92;40.36;92404.75;5489892;25;20219;-73
2024/04/16 09:23:04;;;;;;;;;;;;;;;24.06;40.38;92404.56;5509608;26;20369;-73
2024/04/16 09:25:29;;;;;;;;;;;;;;;24.17;40.08;92405.03;5489227;26;19947;-73
2024/04/16 09:27:56;;;;;;;15.57;4.80;;;;;;;24.02;40.54;92362.47;5492945;26;19931;-73
2024/04/16 09:30:23;;;;;;;12.25;4.57;;;;;;;24.29;40.08;92384.13;5496045;26;20002;-73
2024/04/16 09:33:07;;;;;;;12.75;4.65;;;;;;;24.14;40.89;92361.84;5494262;25;20583;-73
2024/04/16 09:35:32;;;;;;;10.70;3.78;;;;;;;24.30;40.87;92387.50;5513329;26;20045;-73
2024/04/16 09:37:58;;;;;;;;;;;;;;;24.30;41.18;92387.50;5500401;25;19994;-73
2024/04/16 09:40:31;;;;;;;11.60;3.95;;;;;;;24.06;41.15;92343.47;5499866;26;19947;-73
2024/04/16 09:45:43;;;;;;;7.63;3.50;;;;;;;24.33;41.01;92365.13;5487698;26;20001;-73
2024/04/16 09:48:11;;;;;;;11.88;3.40;;;;;;;24.25;40.90;92351.75;5500028;26;19997;-73
2024/04/16 09:50:38;;;;;;;10.32;3.47;;;;;;;24.08;40.56;92326.38;5482326;26;20089;-73
2024/04/16 09:53:05;;;;;;;7.10;3.63;;;;;;;24.29;40.50;92362.38;5494082;26;20329;-73
2024/04/16 09:55:33;;;;;;;10.23;3.50;;;;;;;24.06;41.05;92317.25;5481233;26;21114;-73
2024/04/16 09:58:00;;;;;;;12.38;3.72;;;;;;;24.04;40.84;92317.56;5500472;25;19997;-73
2024/04/16 10:00:26;;;;;;;11.05;4.07;;;;;;;24.07;40.98;92334.53;5490344;25;19997;-73
2024/04/16 10:02:53;;;;;;;;;;;;;;;24.13;40.70;92339.31;5490316;26;19998;-73
2024/04/16 10:05:19;;;;;;;14.13;3.83;;;;;;;23.83;41.12;92299.16;5493246;26;20320;-73
2024/04/16 10:07:45;;;;;;;;;;;;;;;24.29;41.10;92336.13;5490215;26;20009;-73
2024/04/16 10:10:12;;;;;;;8.60;4.20;;;;;;;24.37;40.74;92331.91;5486599;26;20008;-73
2024/04/16 10:12:37;;;;;;;11.48;3.75;;;;;;;24.59;41.31;92309.88;5482864;26;20077;-73
2024/04/16 10:15:03;;;;;;;;;;;;;;;24.94;40.45;92329.84;5486241;25;20041;-73
2024/04/16 10:17:29;;;;;;;13.02;4.25;;;;;;;24.99;39.81;92327.03;5487018;26;19954;-73
2024/04/16 10:19:54;;;;;;;;;;;;;;;24.98;39.49;92324.75;5491237;25;20010;-73
2024/04/16 10:22:20;;;;;;;16.67;4.18;;;;;;;24.76;39.78;92280.06;5484325;26;19960;-73
2024/04/16 10:24:52;;;;;;;;;;;;;;;25.22;39.28;92313.53;5491568;25;20338;-72
2024/04/16 10:27:30;;;;;;;22.90;5.38;;;;;;;25.13;38.90;92305.75;5484449;26;19924;-73
2024/04/16 10:30:07;;;;;;;16.40;4.53;;;;;;;24.85;38.71;92253.00;5496785;25;19997;-72
2024/04/16 10:32:32;;;;;;;9.43;3.70;;;;;;;25.21;38.90;92304.13;5503119;26;20002;-73
2024/04/16 10:35:01;;;;;;;;;;;;;;;25.20;38.04;92303.38;5484031;26;20694;-72
2024/04/16 10:37:32;;;;;;;11.95;4.82;;;;;;;24.98;37.12;92283.47;5484469;26;19923;-72
2024/04/16 10:39:58;;;;;;;12.05;3.88;;;;;;;24.94;37.85;92262.34;5490388;26;20001;-73
2024/04/16 10:42:28;;;;;;;;;;;;;;;25.14;37.56;92288.91;5508423;26;19993;-72
2024/04/16 10:44:54;;;;;;;13.90;3.97;;;;;;;24.61;37.43;92236.00;5507970;26;19923;-73
2024/04/16 10:47:20;;;;;;;13.25;4.95;;;;;;;24.85;37.39;92276.66;5484576;26;20434;-73
2024/04/16 10:49:45;;;;;;;;;;;;;;;24.95;37.14;92295.41;5485155;26;20048;-73
2024/04/16 10:52:12;;;;;;;17.50;4.10;;;;;;;24.51;37.80;92245.84;5493000;26;19981;-73
2024/04/16 10:54:38;;;;;;;20.48;5.40;;;;;;;24.57;37.49;92248.25;5489061;25;20008;-73
2024/04/16 10:57:04;;;;;;;16.23;4.70;;;;;;;24.66;36.64;92257.59;5499584;26;20008;-72
2024/04/16 10:59:29;;;;;;;;;;;;;;;24.95;38.03;92287.50;5495318;26;20034;-73
2024/04/16 11:01:55;;;;;;;9.00;3.58;;;;;;;24.54;39.19;92253.06;5495443;26;20252;-73
2024/04/16 11:04:22;;;;;;;16.27;3.88;;;;;;;24.59;39.51;92262.59;5486527;26;20009;-72
2024/04/16 11:06:48;;;;;;;12.57;4.15;;;;;;;24.39;38.04;92243.91;5487180;26;20010;-73
2024/04/16 11:09:15;;;;;;;11.15;4.15;;;;;;;24.43;37.46;92251.91;5485989;26;19998;-73
2024/04/16 11:11:41;;;;;;;13.05;4.65;;;;;;;24.63;37.74;92276.63;5483911;25;20005;-73
2024/04/16 11:14:07;;;;;;;;;;;;;;;24.69;37.92;92282.44;5495252;26;19997;-73
2024/04/16 11:16:33;;;;;;;21.10;6.80;;;;;;;24.55;38.31;92273.00;5508895;26;19936;-73
2024/04/16 11:18:58;;;;;;;;;;;;;;;24.44;37.30;92282.31;5497592;25;20369;-73
2024/04/16 11:21:29;;;;;;;13.43;3.55;;;;;;;24.04;38.06;92233.63;5481941;26;19967;-73
2024/04/16 11:23:56;;;;;;;15.27;3.95;;;;;;;24.34;38.33;92285.34;5484683;26;20311;-73
2024/04/16 11:26:22;;;;;;;13.40;4.13;;;;;;;24.11;38.50;92241.03;5490432;26;20445;-73
2024/04/16 11:28:48;;;;;;;;;;;;;;;24.47;38.89;92286.16;5498317;26;20005;-73
2024/04/16 11:31:14;;;;;;;12.02;4.38;;;;;;;24.39;38.04;92282.53;5491135;26;19924;-72
2024/04/16 11:33:39;;;;;;;;;;;;;;;24.55;38.59;92280.88;5489972;25;20020;-72
2024/04/16 11:36:07;;;;;;;16.75;3.83;;;;;;;24.38;37.45;92252.88;5499170;26;19923;-73
2024/04/16 11:38:33;;;;;;;15.32;4.03;;;;;;;24.39;37.73;92241.28;5491892;25;19990;-73
2024/04/16 11:40:59;;;;;;;;;;;;;;;24.73;37.58;92267.59;5496385;26;20004;-73